Tiempo atmosférico en la estación meteorológica de Córdoba Aeropuerto, Córdoba (90 m.)

Fecha
DESCASC
Temp. máxima en grados centígrados (hora)
DESCASC
Temp. mínima en grados centígrados (hora)
DESCASC
Temp. media en grados centígrados
DESCASC
Racha de viento máxima en m/sg (hora)
DESCASC
Velocidad máxima media en intervalos de 10 minutos(hora)
DESCASC
Precipitaciones diarias en mm
DESCASC
Precipitaciones de 00:00 a 06:00 en mm
DESCASC
Precipitaciones de 06:00 a 12:00 en mm
DESCASC
Precipitaciones de 12:00 a 18:00 en mm
DESCASC
Precipitaciones de 18:00 a 24:00 en mm
DESCASC
10-12-2017 15.5 (23:50) 9.2 (04:30) 12.3 16.39 (23:40) 11.11 (23:50) 0 0 0 0 0
09-12-2017 15.3 (15:50) 6.6 (02:10) 11 4.72 (13:30) 2.78 (13:40) 0 0 0 0 0
08-12-2017 16.9 (15:30) -0.4 (07:50) 8.2 4.17 (11:10) 2.78 (11:10) 0 0 0 0 0
07-12-2017 15.6 (16:20) -1 (-00:0) 7.3 5.83 (11:30) 4.44 (12:20) 0 0 0 0 0
06-12-2017 15.9 (16:30) -1.1 (-00:0) 7.4 6.11 (12:30) 4.17 (12:00) 0 0 0 0 0
05-12-2017 15 (16:50) -1.2 (-00:0) 6.9 7.22 (12:10) 5 (12:50) 0 0 0 0 0
04-12-2017 14.2 (16:20) 0.1 (00:00) 7.1 9.72 (11:30) 6.67 (11:30) 0 0 0 0 0
03-12-2017 -- (--) -- (--) -- -- (--) -- (--) -- -- -- 0 0
02-12-2017 -- (--) -- (--) -- -- (--) -- (--) -- -- -- -- 0
01-12-2017 -- (--) -- (--) -- -- (--) -- (--) -- -- -- -- --
30-11-2017 15.5 (15:20) 3.3 (00:00) 9.4 8.89 (16:50) 5.83 (17:00) -- 0 0 0 --
29-11-2017 19.4 (16:30) 9 (00:00) 14.2 7.78 (21:10) 3.61 (18:30) 17 14.4 2.6 0 0
28-11-2017 16.8 (15:10) 9.1 (00:00) 12.9 6.11 (11:40) 4.17 (11:40) 3 0 0 0 3
27-11-2017 19.3 (15:30) 6.8 (00:00) 13 7.22 (11:40) 4.72 (11:40) 0 0 0 0 0
26-11-2017 21.7 (16:10) 8.3 (00:00) 15 8.89 (11:30) 6.39 (12:20) 0 0 0 0 0
25-11-2017 18.4 (15:50) 5.9 (00:00) 12.1 4.17 (10:20) 2.22 (10:20) 0 0 0 0 0
24-11-2017 25 (15:30) 6.5 (00:00) 15.8 5.83 (11:40) 3.89 (11:40) 0 0 0 0 0
23-11-2017 22 (15:30) 4.6 (00:00) 13.3 5.83 (10:50) 3.89 (11:00) -- 0 0 -- 0
22-11-2017 22.2 (17:20) 2.5 (00:00) 12.4 5.83 (11:20) 4.44 (12:10) 0 0 0 0 0
21-11-2017 23.1 (16:50) 4.1 (00:00) 13.6 7.22 (11:10) 5 (12:30) 0 0 0 0 0
20-11-2017 23.5 (16:10) 2.7 (00:00) 13.1 7.78 (11:30) 5.28 (11:30) 0 0 0 0 0
19-11-2017 23.6 (17:30) 2.9 (00:00) 13.3 6.11 (11:50) 4.44 (11:50) 0 0 0 0 0
18-11-2017 22.9 (16:10) 2.5 (00:00) 12.7 5.83 (11:30) 4.17 (11:50) 0 0 0 0 0
17-11-2017 23.2 (16:50) 2.3 (00:00) 12.8 5 (11:00) 3.33 (11:50) 0 0 0 0 0
16-11-2017 22.3 (16:00) 2.7 (00:00) 12.5 5.83 (11:10) 3.89 (12:50) 0 0 0 0 0
15-11-2017 21.2 (17:30) 3.4 (00:00) 12.3 6.67 (11:30) 4.72 (12:00) 0 0 0 0 0

Gráficas

Temp. máximas Temp. mínimas Temp. medias Precipitaciones Rachas de viento máximas Velocidades máximas media en intervalos de 10 minutos

Datos horarios

Fecha y hora oficial Temperatura (ºC) Velocidad del viento (km/h) Dirección del viento Racha (km/h) Dirección de racha Precipitación (mm) Presión (hPa) Tendencia (hPa) Humedad (%)
2017-12-14 23:00:00 10.5 3 Oeste 8 Sudoeste 0 1011.1 -1 94
2017-12-14 22:00:00 10.9 0 Calma -- -- 0 1011.4 -0.6 90
2017-12-14 21:00:00 11.2 0 Calma 5 Sur 0 1011.7 -0.4 87
2017-12-14 20:00:00 11.4 0 Calma 8 Oeste 0 1012.1 0 86
2017-12-14 19:00:00 11.8 0 Calma 5 Oeste 0 1012 -0.2 80
2017-12-14 18:00:00 12.3 5 Oeste 11 Oeste 0 1012.1 -0.9 75
2017-12-14 17:00:00 12.8 8 Oeste 13 Oeste 0 1012.1 -2 69
2017-12-14 16:00:00 13.7 2 Oeste 11 Sudoeste 0 1012.2 -3.3 64
2017-12-14 15:00:00 13.2 0 Calma 5 Oeste 0 1013 -3.4 57
2017-12-14 14:00:00 12.2 0 Calma 5 Nordeste 0 1014.1 -3 61
2017-12-14 13:00:00 9.4 3 Nordeste 8 Este 0 1015.5 -1.2 71
2017-12-14 12:00:00 7.4 0 Calma 9 Este 0 1016.4 -0.4 80
2017-12-14 11:00:00 6.1 7 Este 13 Este 0 1017.1 0.5 86
2017-12-14 10:00:00 4.5 0 Calma -- -- 0 1016.7 0.3 96
2017-12-14 09:00:00 2.5 0 Calma -- -- 0 1016.8 0.3 99
2017-12-14 08:00:00 1.9 0 Calma -- -- 0 1016.6 0.1 99
2017-12-14 07:00:00 1.5 0 Calma -- -- 0 1016.4 -0.7 99
2017-12-14 06:00:00 1.6 0 Calma -- -- 0 1016.5 -0.6 99
2017-12-14 05:00:00 1.7 0 Calma 2 Sudeste 0 1016.5 -0.7 99
2017-12-14 04:00:00 2.1 0 Calma -- -- 0 1017.1 -0.5 98
2017-12-14 03:00:00 2.4 0 Calma 2 Sur 0 1017.1 -0.7 98
2017-12-14 02:00:00 2.6 0 Calma 4 Norte 0 1017.2 -0.4 98
2017-12-14 01:00:00 3 0 Calma -- -- 0 1017.6 -0.2 97
2017-12-14 00:00:00 3.6 0 Calma -- -- 0 1017.8 0.3 96
2017-12-13 23:00:00 4.1 0 Calma -- -- 0 1017.6 0.4 95
2017-12-13 22:00:00 4.8 0 Calma -- -- 0 1017.8 0.9 94
2017-12-13 21:00:00 5.6 0 Calma 2 Norte 0 1017.5 0.8 92
2017-12-13 20:00:00 6.5 0 Calma 5 Norte 0 1017.2 0.3 83
2017-12-13 19:00:00 9 0 Calma -- -- 0 1016.9 0 77
2017-12-13 18:00:00 13 0 Calma -- -- 0 1016.7 -- 52
2017-12-13 17:00:00 14.4 0 Calma 5 Sudeste 0 1016.9 -- 43
2017-12-13 16:00:00 14.6 0 Calma 13 Este 0 1016.9 -- 44
2017-12-13 15:00:00 -- -- -- -- -- -- -- -- --
2017-12-13 14:00:00 -- -- -- -- -- -- -- -- --
2017-12-13 13:00:00 -- -- -- -- -- -- -- -- --
2017-12-13 12:00:00 8.5 15 Este 26 Este 0 1019.9 -- 71
2017-12-13 11:00:00 5.8 18 Este 24 Este 0 1019.5 -- 80
2017-12-13 10:00:00 3.7 11 Este -- -- -- 1018.6 -- 89
2017-12-13 09:00:00 -- -- -- -- -- -- -- -- --
2017-12-13 08:00:00 -- -- -- -- -- -- -- -- --
2017-12-13 07:00:00 -- -- -- -- -- -- -- -- --
2017-12-13 06:00:00 -- -- -- -- -- -- -- -- --
2017-12-13 05:00:00 -- -- -- -- -- -- -- -- --
2017-12-13 04:00:00 -- -- -- -- -- -- -- -- --
2017-12-13 03:00:00 -- -- -- -- -- -- -- -- --
2017-12-13 02:00:00 -- -- -- -- -- -- -- -- --
2017-12-13 01:00:00 -- -- -- -- -- -- -- -- --
2017-12-13 00:00:00 -- -- -- -- -- -- -- -- --
2017-12-12 23:00:00 -- -- -- -- -- -- -- -- --
2017-12-12 22:00:00 -- -- -- -- -- -- -- -- --
2017-12-12 21:00:00 -- -- -- -- -- -- -- -- --
2017-12-12 20:00:00 6.3 0 Calma -- -- -- 1011.8 2.6 89
2017-12-12 19:00:00 8.4 0 Calma 4 Sudoeste 0 1011 2.5 78
2017-12-12 18:00:00 12 3 Sur 4 Sur 0 1010 2.1 58
2017-12-12 17:00:00 14 0 Calma 8 Sudeste 0 1009.2 1.4 43
2017-12-12 16:00:00 14.2 3 Este 15 Sudeste 0 1008.5 0.5 42
2017-12-12 15:00:00 13.9 6 Sudeste 18 Este 0 1007.9 -0.1 43
2017-12-12 14:00:00 13 11 Este 24 Este 0 1007.8 0.4 45
2017-12-12 13:00:00 12.5 12 Este 21 Este 0 1008 1.3 45
2017-12-12 12:00:00 11.9 4 Este 13 Este 0 1008 2.4 59
2017-12-12 11:00:00 10.1 4 Sur 9 Sur 0 1007.4 2.9 66
2017-12-12 10:00:00 6.7 0 Calma 8 Sur 0 1006.7 3.3 88
2017-12-12 09:00:00 3.3 4 Sur 9 Sur 0 1005.6 3.5 96
2017-12-12 08:00:00 4.1 5 Sur 11 Sudeste 0 1004.5 3.6 95
2017-12-12 07:00:00 7.3 6 Nordeste 28 Norte 0 1003.4 3 74
2017-12-12 06:00:00 5.6 0 Calma 15 Oeste 0 1002.1 2.4 88
2017-12-12 05:00:00 6.2 6 Sudoeste 13 Sur 0 1000.9 1.7 90
2017-12-12 04:00:00 6.2 7 Sur 15 Sur 0 1000.4 1.8 97
2017-12-12 03:00:00 5.9 5 Oeste 13 Noroeste 0 999.7 1.8 97
2017-12-12 02:00:00 6 12 Oeste 18 Noroeste 0 999.2 2.1 95
2017-12-12 01:00:00 6.1 7 Oeste 11 Oeste 0 998.6 2.4 96
2017-12-12 00:00:00 6.9 5 Oeste 15 Oeste 0 997.9 2.6 97
2017-12-11 23:00:00 7.5 6 Oeste 15 Oeste 0 997.1 2.3 95
2017-12-11 22:00:00 8.6 8 Oeste 17 Oeste 0 996.2 2.7 92
2017-12-11 21:00:00 9.3 6 Oeste 18 Sudoeste 0 995.3 2.4 89
2017-12-11 20:00:00 10.1 12 Sudoeste 24 Oeste 0.8 994.8 2.2 84
2017-12-11 19:00:00 10.8 14 Sudoeste 24 Sudoeste 0 993.5 1.3 75
2017-12-11 18:00:00 11.8 17 Sudoeste 32 Oeste 0 992.9 0.8 73
2017-12-11 17:00:00 13.1 21 Sudoeste 35 Sudoeste 0 992.6 0.3 71
2017-12-11 16:00:00 13.4 22 Sudoeste 33 Oeste 0 992.2 -0.7 70
2017-12-11 15:00:00 13 22 Sudoeste 33 Sudoeste 0 992.1 -1.1 74
2017-12-11 14:00:00 11.4 19 Oeste 30 Sudoeste 0 992.3 -1.4 79
2017-12-11 13:00:00 10.7 19 Oeste 28 Oeste 0 992.9 0.5 87
2017-12-11 12:00:00 9.4 11 Oeste 21 Oeste 0 993.2 1.7 92
2017-12-11 11:00:00 8.9 9 Oeste 32 Sur 0 993.7 3.8 93
2017-12-11 10:00:00 8.3 14 Sudoeste 26 Sudoeste 1.2 992.4 4.5 94
2017-12-11 09:00:00 8.3 15 Sudoeste 22 Oeste 3.5 991.5 6.7 92
2017-12-11 08:00:00 9.2 12 Oeste 42 Oeste 3.5 989.9 3.2 88
2017-12-11 07:00:00 11 21 Oeste 80 Sudoeste 8.3 987.9 -1.2 83
2017-12-11 06:00:00 15 55 Sudoeste 87 Sudoeste 1.4 984.8 -6.7 88
2017-12-11 05:00:00 15.5 53 Sudoeste 76 Sudoeste 0 986.7 -6.9 82
2017-12-11 04:00:00 15.5 45 Sudoeste 76 Sudoeste 0 989.1 -6.4 83
2017-12-11 03:00:00 15.6 39 Sudoeste 65 Sudoeste 0 991.5 -5.2 82
2017-12-11 02:00:00 15.5 37 Sudoeste 61 Oeste 0 993.6 -9.7 83
2017-12-11 01:00:00 15.4 39 Sudoeste 59 Sudoeste 0 995.5 -7.8 88
2017-12-11 00:00:00 15.5 37 Sudoeste 59 Sudoeste 0 996.7 -6.6 87
2017-12-10 23:00:00 15.4 26 Sudoeste 45 Sudoeste 0 1003.3 0 85
2017-12-10 22:00:00 15 30 Sudoeste 41 Sudoeste 0 1003.3 0 86
2017-12-10 21:00:00 14.8 21 Sudoeste 33 Sudoeste 0 1003.3 -1 86
2017-12-10 20:00:00 14.7 25 Sudoeste 42 Sudoeste 0 1003.3 -2 84
2017-12-10 19:00:00 13.1 2 Noroeste 11 Sudoeste 0 1003.3 -3.3 90
2017-12-10 18:00:00 13.1 0 Calma 11 Oeste 0 1004.3 -4.2 90
2017-12-10 17:00:00 13.8 3 Oeste 13 Oeste 0 1005.3 -4.9 88
2017-12-10 16:00:00 13 7 Oeste 13 Noroeste 0 1006.6 -4.6 91
2017-12-10 15:00:00 12.1 9 Sudoeste 17 Sudoeste 0 1008.5 -3.7 94
2017-12-10 14:00:00 11.2 8 Oeste 22 Oeste 0 1010.2 -2.9 97
2017-12-10 13:00:00 10.3 16 Oeste 24 Oeste 0 1011.2 -1.9 99
2017-12-10 12:00:00 9.8 11 Oeste 22 Oeste 0 1012.2 -0.8 99
2017-12-10 11:00:00 9.6 12 Oeste 21 Oeste 0 1013.1 -0.1 99
2017-12-10 10:00:00 9.8 10 Oeste 17 Sudoeste 0 1013.1 -0.3 99
2017-12-10 09:00:00 9.5 3 Sudoeste 13 Oeste 0 1013 -0.4 99
2017-12-10 08:00:00 9.3 6 Oeste 13 Oeste 0 1013.2 -0.9 99
2017-12-10 07:00:00 9.2 3 Oeste 13 Oeste 0 1013.4 -0.9 99
2017-12-10 06:00:00 9.2 10 Oeste 17 Oeste 0 1013.4 -1.1 99
2017-12-10 05:00:00 9.2 0 Calma 11 Oeste 0 1014.1 -0.9 99
2017-12-10 04:00:00 9.5 6 Sudoeste 15 Oeste 0 1014.3 -1.4 99
2017-12-10 03:00:00 10.3 9 Oeste 21 Oeste 0 1014.5 -1.5 98
2017-12-10 02:00:00 10.6 7 Oeste 13 Oeste 0 1015 -0.9 97
2017-12-10 01:00:00 11 4 Oeste 11 Oeste 0 1015.7 0 93
2017-12-10 00:00:00 11.3 2 Sudoeste 5 Sudoeste 0 1016 0.3 92
2017-12-09 23:00:00 11.7 3 Sudoeste 5 Sudoeste 0 1015.9 0.6 91
2017-12-09 22:00:00 11.8 3 Sudoeste 5 Sudoeste 0 1015.7 0.6 89
2017-12-09 21:00:00 12.4 2 Sudoeste 5 Sudoeste 0 1015.7 0.6 87
2017-12-09 20:00:00 12.4 4 Sudoeste 5 Oeste 0 1015.3 0.5 87
2017-12-09 19:00:00 13.4 2 Sudoeste 8 Sudoeste 0 1015.1 0.3 83
2017-12-09 18:00:00 14.4 4 Oeste 8 Noroeste 0 1015.1 -0.1 78
2017-12-09 17:00:00 14.5 6 Oeste 11 Noroeste 0 1014.8 -1.2 76
2017-12-09 16:00:00 15 6 Oeste 13 Oeste 0 1014.8 -1.8 71
2017-12-09 15:00:00 13.8 3 Oeste 11 Oeste 0 1015.2 -2.4 72
2017-12-09 14:00:00 13.1 10 Oeste 17 Oeste 0 1016 -1.6 74
2017-12-09 13:00:00 12.4 8 Sudoeste 13 Sudoeste 0 1016.6 -0.5 71
2017-12-09 12:00:00 11.4 5 Oeste 8 Oeste 0 1017.6 1.1 71
2017-12-09 11:00:00 10.4 5 Oeste 8 Oeste 0 1017.6 1.3 76
2017-12-09 10:00:00 9.7 0 Calma 8 Oeste 0 1017.1 1.2 77
2017-12-09 09:00:00 8.3 0 Calma 2 Oeste 0 1016.5 0.8 87
2017-12-09 08:00:00 7.7 0 Calma 5 Sudoeste 0 1016.3 0 87
2017-12-09 07:00:00 8.4 0 Calma 5 Oeste 0 1015.9 -0.7 84
2017-12-09 06:00:00 8.1 3 Sudoeste 5 Oeste 0 1015.7 -1.2 84
2017-12-09 05:00:00 8.2 0 Calma -- -- 0 1016.3 -0.4 83
2017-12-09 04:00:00 7.8 0 Calma 2 Sudoeste 0 1016.6 -0.4 86
2017-12-09 03:00:00 7.1 0 Calma 4 Noroeste 0 1016.9 -0.4 89
2017-12-09 02:00:00 6.7 0 Calma 5 Sudoeste 0 1016.7 -0.9 86
2017-12-09 01:00:00 7.8 3 Sudoeste 8 Este 0 1017 -0.4 85
2017-12-09 00:00:00 7.8 2 Nordeste 5 Norte 0 1017.3 0 82
2017-12-08 23:00:00 7.5 4 Nordeste 5 Nordeste 0 1017.6 0.4 82
2017-12-08 22:00:00 8 0 Calma 5 Sudoeste 0 1017.4 0.3 77
2017-12-08 21:00:00 8.9 0 Calma 5 Sur 0 1017.3 0.8 71
2017-12-08 20:00:00 10 2 Sudoeste 11 Sur 0 1017.2 0.6 68
2017-12-08 19:00:00 11.1 5 Oeste 8 Oeste 0 1017.1 0.5 63
2017-12-08 18:00:00 14 4 Oeste 11 Oeste 0 1016.5 -0.7 52
2017-12-08 17:00:00 15.4 6 Noroeste 13 Noroeste 0 1016.6 -1.4 43
2017-12-08 16:00:00 16.6 5 Sudoeste 13 Sudoeste 0 1016.6 -2.4 40
2017-12-08 15:00:00 15.7 0 Calma 8 Sur 0 1017.2 -3 42
2017-12-08 14:00:00 14.6 0 Calma 8 Este 0 1018 -2.4 47
2017-12-08 13:00:00 12.2 2 Este 13 Este 0 1019 -1.3 52
2017-12-08 12:00:00 9.6 6 Este 15 Este 0 1020.2 0.1 59
2017-12-08 11:00:00 7 7 Este 13 Este 0 1020.4 0.6 71
2017-12-08 10:00:00 4.1 5 Este 11 Este 0 1020.3 0.5 87
2017-12-08 09:00:00 0.3 3 Nordeste 5 Nordeste 0 1020.1 0.5 99
2017-12-08 08:00:00 -0.1 0 Calma 8 Nordeste 0 1019.8 0.2 99
2017-12-08 07:00:00 0.3 0 Calma 2 Sudeste 0 1019.8 0 98
2017-12-08 06:00:00 1 0 Calma 4 Este 0 1019.6 -0.1 97
2017-12-08 05:00:00 1.5 2 Nordeste 5 Nordeste 0 1019.6 -0.4 97
2017-12-08 04:00:00 1.8 3 Este 5 Este 0 1019.8 -0.6 96
2017-12-08 03:00:00 1.2 0 Calma 4 Este 0 1019.7 -0.6 98
2017-12-08 02:00:00 1.2 0 Calma -- -- 0 1020 0 98
2017-12-08 01:00:00 1.4 0 Calma 2 Sur 0 1020.4 0.2 96
2017-12-08 00:00:00 2.4 0 Calma 5 Nordeste 0 1020.3 0.6 94
2017-12-07 23:00:00 2.9 0 Calma -- -- 0 1020 0.5 92
2017-12-07 22:00:00 3.2 0 Calma -- -- 0 1020.2 1 90
2017-12-07 21:00:00 4.4 0 Calma -- -- 0 1019.7 0.7 87
2017-12-07 20:00:00 6 0 Calma -- -- 0 1019.5 0.6 83
2017-12-07 19:00:00 8.5 0 Calma -- -- 0 1019.2 0.1 69
2017-12-07 18:00:00 13.3 0 Calma -- -- 0 1019 -0.2 45
2017-12-07 17:00:00 15.1 0 Calma 5 Sudeste 0 1018.9 -1.2 42
2017-12-07 16:00:00 15.3 0 Calma 8 Este 0 1019.1 -2 40
2017-12-07 15:00:00 13.6 6 Este 17 Sudeste 0 1019.2 -3 44
2017-12-07 14:00:00 12.2 6 Este 18 Este 0 1020.1 -2.5 47
2017-12-07 13:00:00 10.8 11 Este 21 Este 0 1021.1 -1.1 51
2017-12-07 12:00:00 8.6 15 Este 21 Este 0 1022.2 0.4 60
2017-12-07 11:00:00 6.2 9 Este 17 Este 0 1022.6 1.5 70
2017-12-07 10:00:00 3.4 5 Este 13 Este 0 1022.2 1.5 83
2017-12-07 09:00:00 0 2 Nordeste 8 Este 0 1021.8 0.9 96
2017-12-07 08:00:00 -0.8 6 Nordeste 11 Este 0 1021.1 0 96
2017-12-07 07:00:00 -0.5 4 Este 8 Este 0 1020.7 -0.5 97
2017-12-07 06:00:00 -0.4 5 Este 5 Este 0 1020.9 -0.2 97
2017-12-07 05:00:00 -0.2 0 Calma 8 Este 0 1021.1 -0.2 96
2017-12-07 04:00:00 0 6 Este 8 Este 0 1021.2 -0.5 95
2017-12-07 03:00:00 -0.1 6 Este 8 Este 0 1021.1 -0.5 95
2017-12-07 02:00:00 -0.1 2 Nordeste 4 Nordeste 0 1021.3 -0.2 95
2017-12-07 01:00:00 0.8 0 Calma 5 Norte 0 1021.7 0.6 95
2017-12-07 00:00:00 0.4 7 Nordeste 8 Nordeste 0 1021.6 0.8 92
2017-12-06 23:00:00 1.9 0 Calma 2 Nordeste 0 1021.5 1 89
2017-12-06 22:00:00 3.8 0 Calma 5 Este 0 1021.1 0.8 83
2017-12-06 21:00:00 3.8 2 Nordeste 4 Nordeste 0 1020.8 0.7 83
2017-12-06 20:00:00 5.7 0 Calma 5 Nordeste 0 1020.5 0.5 73
2017-12-06 19:00:00 8.2 3 Nordeste 5 Nordeste 0 1020.3 0.1 65
2017-12-06 18:00:00 11.9 0 Calma 8 Nordeste 0 1020.1 -0.5 50
2017-12-06 17:00:00 14.8 3 Este 8 Este 0 1020 -1.4 41
2017-12-06 16:00:00 15.4 0 Calma 11 Nordeste 0 1020.2 -2.2 37
2017-12-06 15:00:00 14.1 4 Este 17 Este 0 1020.6 -2.8 40
2017-12-06 14:00:00 12.9 12 Este 21 Este 0 1021.4 -2.7 45
2017-12-06 13:00:00 11.2 15 Este 22 Sudeste 0 1022.4 -1.5 50
2017-12-06 12:00:00 8.7 15 Este 21 Este 0 1023.4 -0.2 58
2017-12-06 11:00:00 5.8 13 Este 21 Este 0 1024.1 0.8 70
2017-12-06 10:00:00 3 6 Este 13 Este 0 1023.9 0.9 82
2017-12-06 09:00:00 0.2 4 Este 8 Este 0 1023.6 0.7 92
2017-12-06 08:00:00 -0.5 2 Este 15 Este 0 1023.3 0.3 94
2017-12-06 07:00:00 -0.6 9 Este 15 Este 0 1023 -0.3 94
2017-12-06 06:00:00 -0.4 3 Nordeste 8 Este 0 1022.9 -0.4 95
2017-12-06 05:00:00 -0.5 5 Este 11 Este 0 1023 -0.4 93
2017-12-06 04:00:00 -0.1 4 Este 5 Este 0 1023.3 -0.3 95
2017-12-06 03:00:00 -0.3 0 Calma 2 Sur 0 1023.3 -0.3 95
2017-12-06 02:00:00 -0.1 0 Calma 2 Sudoeste 0 1023.4 0.1 93
2017-12-06 01:00:00 0.7 2 Este 4 Este 0 1023.6 0.5 90
2017-12-06 00:00:00 1.3 0 Calma 4 Este 0 1023.6 0.6 88
2017-12-05 23:00:00 1.9 0 Calma 4 Este 0 1023.3 0.7 91
2017-12-05 22:00:00 3.3 2 Oeste 4 Oeste 0 1023.1 0.8 82
2017-12-05 21:00:00 5 3 Nordeste 8 Nordeste 0 1023 1 73
2017-12-05 20:00:00 5.8 4 Este 8 Este 0 1022.6 0.5 72
2017-12-05 19:00:00 7.2 3 Este 8 Este 0 1022.3 0.3 67
2017-12-05 18:00:00 12.1 4 Este 5 Este 0 1022 -0.5 47
2017-12-05 17:00:00 15 0 Calma 9 Este 0 1022.1 -1 33
2017-12-05 16:00:00 14.7 5 Este 15 Este 0 1022 -2 32
2017-12-05 15:00:00 13.9 6 Este 15 Este 0 1022.5 -2.4 39
2017-12-05 14:00:00 12.4 7 Este 22 Este 0 1023.1 -2.1 43
2017-12-05 13:00:00 10.8 16 Este 26 Este 0 1024 -0.8 45
2017-12-05 12:00:00 8.8 15 Este 24 Este 0 1024.9 0.4 55
2017-12-05 11:00:00 6.4 12 Este 18 Este 0 1025.2 1.2 67
2017-12-05 10:00:00 2.9 8 Este 13 Este 0 1024.8 1.3 83
2017-12-05 09:00:00 0.1 4 Este 11 Este 0 1024.5 1.3 94
2017-12-05 08:00:00 -0.8 2 Este 13 Este 0 1024 0.9 96
2017-12-05 07:00:00 -0.6 4 Este 8 Este 0 1023.5 0.3 93
2017-12-05 06:00:00 0.4 5 Este 8 Este 0 1023.2 0 93
2017-12-05 05:00:00 0 2 Este 11 Este 0 1023.1 -0.2 93
2017-12-05 04:00:00 -0.6 3 Sudeste 8 Nordeste 0 1023.2 0 96
2017-12-05 03:00:00 -0.8 0 Calma 4 Norte 0 1023.2 -0.1 96
2017-12-05 02:00:00 -0.1 0 Calma 4 Sudoeste 0 1023.3 0.3 94
2017-12-05 01:00:00 0.5 0 Calma 5 Este 0 1023.2 0.4 94
2017-12-05 00:00:00 1.4 0 Calma 4 Sur 0 1023.3 1 92
2017-12-04 23:00:00 1.9 0 Calma 5 Nordeste 0 1023 1.1 85
2017-12-04 22:00:00 3.9 3 Este 11 Este 0 1022.8 1.4 80
2017-12-04 21:00:00 4.5 3 Este 8 Este 0 1022.3 1.5 76
2017-12-04 20:00:00 5.9 0 Calma 4 Este 0 1021.9 1.5 71
2017-12-04 19:00:00 8 0 Calma 8 Norte 0 1021.4 1 60
2017-12-04 18:00:00 12.6 2 Este 17 Este 0 1020.8 0.2 40
2017-12-04 17:00:00 13.8 12 Este 24 Este 0 1020.4 -0.8 38
2017-12-04 16:00:00 14.1 15 Este 22 Este 0 1020.4 -1.6 35
2017-12-04 15:00:00 13.5 14 Este 24 Este 0 1020.6 -2 38
2017-12-04 14:00:00 12.2 19 Este 28 Este 0 1021.2 -1.8 40
2017-12-04 13:00:00 10.8 19 Este 33 Este 0 1022 -0.5 40
2017-12-04 12:00:00 9 21 Este 35 Este 0 1022.6 0.6 47
2017-12-04 11:00:00 6.7 19 Este 32 Nordeste 0 1023 1.6 54
2017-12-04 10:00:00 4 11 Este 21 Este 0 1022.5 1.6 66
2017-12-04 09:00:00 1.2 13 Este 18 Este 0 1022 1.6 76
2017-12-04 08:00:00 0.3 13 Este 21 Este 0 1021.4 0.9 78
2017-12-04 07:00:00 0.8 14 Este 22 Este 0 1020.9 0.1 76
2017-12-04 06:00:00 0.6 14 Este 26 Este 0 1020.4 -0.5 78
2017-12-04 05:00:00 0.7 14 Este 26 Este 0 1020.5 -0.2 79
2017-12-04 04:00:00 0.9 14 Este 24 Este 0 1020.8 0 79
2017-12-04 03:00:00 1.3 15 Este 22 Este 0 1020.9 0.1 77
2017-12-04 02:00:00 1.2 15 Este 21 Este 0 1020.7 0.4 82
2017-12-04 01:00:00 1.9 16 Este 21 Este 0 1020.8 0.9 83
2017-12-04 00:00:00 2.3 15 Este 21 Este 0 1020.8 1.4 84
2017-12-03 23:00:00 3.2 16 Este 21 Este 0 1020.3 1.6 79
2017-12-03 22:00:00 4 13 Este 18 Este 0 1019.9 1.7 74
2017-12-03 21:00:00 4.1 13 Este 17 Este 0 1019.4 1.7 74
2017-12-03 20:00:00 4.6 9 Este 15 Nordeste 0 1018.7 1.4 72
2017-12-03 19:00:00 6.1 9 Nordeste 15 Nordeste 0 1018.2 1.2 64
2017-12-03 18:00:00 9.6 8 Este 17 Este 0 1017.7 0.6 47
2017-12-03 17:00:00 11.8 10 Este 24 Este 0 1017.3 -0.4 37
2017-12-03 16:00:00 12 15 Este 26 Nordeste 0 1017 -1.2 36
2017-12-03 15:00:00 11.8 15 Este 26 Este 0 1017.1 -1.4 38
2017-12-03 14:00:00 10.8 13 Este 22 Este 0 1017.7 -1 44
2017-12-03 13:00:00 9.6 13 Este 26 Este 0 1018.2 0.2 50
2017-12-03 12:00:00 8.7 16 Este 24 Este 0 1018.5 1 54
2017-12-03 11:00:00 6 9 Este 18 Este 0 1018.7 1.7 71
2017-12-03 10:00:00 3 8 Nordeste -- -- -- 1018 1.6 85
2017-12-03 09:00:00 -0.2 0 Calma 5 Norte 0 1017.5 1.7 95
2017-12-03 08:00:00 -1.4 0 Calma -- -- -- 1017 1.3 97
2017-12-03 07:00:00 -0.8 0 Calma -- -- -- 1016.4 1.1 96
2017-12-03 06:00:00 -0.6 9 Nordeste 13 Nordeste 0 1015.8 0.7 98
2017-12-03 05:00:00 -1.1 -- -- -- -- -- 1015.7 0.6 98
2017-12-03 04:00:00 -0.5 0 Calma -- -- -- 1015.3 0.2 98
2017-12-03 03:00:00 -0.3 0 Calma 4 Sur 0 1015.1 0.2 97
2017-12-03 02:00:00 0.2 0 Calma 2 Este 0 1015.1 0.4 97
2017-12-03 01:00:00 0.8 2 Sur -- -- -- 1015.1 0.6 95
2017-12-03 00:00:00 1.4 0 Calma 4 Sudoeste 0 1014.9 0.8 94
2017-12-02 23:00:00 2.2 0 Calma 8 Norte 0 1014.7 1.2 93
2017-12-02 22:00:00 2.8 0 Calma 4 Sur 0 1014.5 1.5 93
2017-12-02 21:00:00 3.5 0 Calma 8 Sur 0 1014.1 1.4 90
2017-12-02 20:00:00 5 0 Calma -- -- -- 1013.5 0.9 79
2017-12-02 19:00:00 7.7 0 Calma 8 Norte 0 1013 0.4 59
2017-12-02 18:00:00 9.5 4 Este 13 Este 0 1012.7 -0.3 53
2017-12-02 17:00:00 12.3 7 Este 15 Este 0 1012.6 -1 40
2017-12-02 16:00:00 12.6 7 Este -- -- -- 1012.6 -2 38
2017-12-02 15:00:00 12.1 12 Este -- -- -- 1013 -2.4 37
2017-12-02 14:00:00 11.3 11 Este -- -- -- 1013.6 -2 38
2017-12-02 13:00:00 10.3 17 Este 26 Este 0 1014.6 -0.8 42
2017-12-02 12:00:00 8.9 17 Nordeste -- -- -- 1015.4 0.3 50
2017-12-02 11:00:00 7.3 6 Este -- -- -- 1015.6 1.1 57
2017-12-02 10:00:00 4.5 10 Este -- -- -- 1015.4 1.2 72
2017-12-02 09:00:00 1.6 7 Nordeste -- -- -- 1015.1 1.4 84
2017-12-02 08:00:00 0.8 10 Este 15 Este 0 1014.5 0.9 86
2017-12-02 07:00:00 1.2 9 Este -- -- -- 1014.2 0.8 84
2017-12-02 06:00:00 1.5 0 Calma 15 Este 0 1013.7 0.8 86
2017-12-02 05:00:00 2.5 2 Este -- -- -- 1013.6 -- 84
2017-12-02 04:00:00 3.2 2 Norte -- -- -- 1013.4 0.6 83
2017-12-02 03:00:00 4.9 8 Este 17 Este 0 1012.9 0.3 73
2017-12-02 02:00:00 -- -- -- -- -- -- -- -- --
2017-12-02 01:00:00 4.4 6 Este 11 Este 0 1012.8 1.4 88
2017-12-02 00:00:00 6.2 4 Sudeste 13 Este 0 1012.6 2.6 82
2017-12-01 23:00:00 7.6 6 Este 18 Este 0 1011.9 2.4 77
2017-12-01 22:00:00 9.9 14 Nordeste 30 Nordeste 0 1011.4 2.6 66
2017-12-01 21:00:00 8.1 3 Sur -- -- -- 1010 -- 75
2017-12-01 20:00:00 8.1 6 Sur -- -- -- 1009.5 1.5 71
2017-12-01 19:00:00 9.9 0 Calma -- -- -- 1008.8 1.3 58
2017-12-01 18:00:00 -- -- -- -- -- -- -- -- --
2017-12-01 17:00:00 13 12 Oeste 28 Oeste 0 1008 -1 55
2017-12-01 16:00:00 12.8 21 Sudoeste -- -- -- 1007.5 -2.9 53
2017-12-01 15:00:00 12.9 20 Sudoeste -- -- -- 1007.8 -3.6 52
2017-12-01 14:00:00 11.5 17 Sudoeste -- -- -- 1009 -2.7 59
2017-12-01 13:00:00 9.8 6 Sudoeste -- -- -- 1010.4 -1.3 63
2017-12-01 12:00:00 8 2 Oeste -- -- -- 1011.4 -0.2 66
2017-12-01 11:00:00 6.5 2 Este 5 Este 0 1011.7 -- 73
2017-12-01 10:00:00 3.7 -- -- 4 Sudoeste 0 1011.7 -- 88
2017-12-01 09:00:00 1 0 Calma -- -- 0 1011.6 0.3 99
2017-12-01 08:00:00 -- -- -- -- -- -- -- -- --
2017-12-01 07:00:00 0.2 0 Calma -- -- -- -- -- 98
2017-12-01 06:00:00 0.5 0 Calma 5 Sudoeste 0 1011.3 -0.1 98
2017-12-01 05:00:00 0.7 0 Calma -- -- -- 1011.1 -0.1 97
2017-12-01 04:00:00 1.2 0 Calma -- -- 0 1011.4 0.2 97
2017-12-01 03:00:00 1.4 0 Calma 4 Sudeste 0 1011.4 0.3 94
2017-12-01 02:00:00 2 0 Calma 8 Nordeste 0 1011.2 0.7 94
2017-12-01 01:00:00 2.8 0 Calma -- -- -- 1011.2 1.1 91
2017-12-01 00:00:00 3.4 0 Calma 8 Oeste 0 1011.1 -- 87
2017-11-30 23:00:00 4.6 0 Calma 11 Oeste 0 1010.5 1.9 79
2017-11-30 22:00:00 4.9 3 Sudeste 8 Sur 0 1010.1 2.8 80
2017-11-30 21:00:00 -- -- -- -- -- -- -- -- --
2017-11-30 20:00:00 8.6 7 Norte 18 Norte 0 1008.6 3.7 50
2017-11-30 19:00:00 10.1 13 Norte -- -- -- 1007.3 3.2 41
2017-11-30 18:00:00 12.3 14 Norte 30 Nordeste 0 1006.1 2.5 35
2017-11-30 17:00:00 14.2 21 Norte -- -- -- 1004.9 1.3 28
2017-11-30 16:00:00 15.1 17 Nordeste 26 Nordeste 0 1004.1 0.3 29
2017-11-30 15:00:00 15.2 9 Este 24 Este 0 1003.6 -0.2 39
2017-11-30 14:00:00 14.3 13 Este 22 Este 0 1003.6 0 43
2017-11-30 13:00:00 14 12 Este 26 Este 0 1003.8 1.3 43
2017-11-30 12:00:00 12.6 18 Nordeste 28 Este 0 1003.8 2.3 42
2017-11-30 11:00:00 11.6 18 Nordeste 26 Nordeste 0 1003.6 3.1 45
2017-11-30 10:00:00 10 5 Este 13 Este 0 1002.5 3 68
2017-11-30 09:00:00 5.9 0 Calma -- -- 0 1001.5 2.7 90
2017-11-30 08:00:00 4.4 0 Calma -- -- 0 1000.5 2 95
2017-11-30 07:00:00 4.8 0 Calma 2 Sudeste 0 999.5 0.9 96
2017-11-30 06:00:00 5.2 0 Calma 2 Sudeste 0 998.8 0.4 97
2017-11-30 05:00:00 5.9 0 Calma 5 Este 0 998.5 0.3 95
2017-11-30 04:00:00 7.1 2 Este 11 Este 0 998.6 0.4 94
2017-11-30 03:00:00 7.4 6 Este 13 Sudeste 0 998.4 0 95
2017-11-30 02:00:00 7.3 4 Este 8 Este 0 998.2 0.2 96
2017-11-30 01:00:00 7.7 0 Calma -- -- 0 998.2 0.5 96
2017-11-30 00:00:00 9.1 0 Calma 8 Este 0 998.4 1.2 89
2017-11-29 23:00:00 11.4 6 Nordeste 18 Norte 0 998 0.9 74
2017-11-29 22:00:00 12.3 5 Sur 28 Norte 0 997.7 1.3 75
2017-11-29 21:00:00 13.8 9 Norte 24 Norte 0 997.2 1.6 67
2017-11-29 20:00:00 12.1 6 Sudoeste 13 Noroeste 0 997.1 2.1 87
2017-11-29 19:00:00 13.6 10 Noroeste 17 Noroeste 0 996.4 1.9 79
2017-11-29 18:00:00 15.8 11 Noroeste 17 Noroeste 0 995.6 1 70
2017-11-29 17:00:00 18.2 3 Norte 15 Norte 0 995 0.1 64
2017-11-29 16:00:00 17.9 0 Calma 11 Noroeste 0 994.5 -0.9 72
2017-11-29 15:00:00 17 10 Norte 21 Norte 0 994.6 -1.2 75
2017-11-29 14:00:00 16.6 3 Sudoeste 11 Oeste 0 994.9 -1.2 90
2017-11-29 13:00:00 16.8 5 Oeste 13 Oeste 0 995.4 -1 89
2017-11-29 12:00:00 16.5 6 Oeste 17 Sudoeste 0 995.8 -0.4 91
2017-11-29 11:00:00 15.3 12 Sudoeste 17 Sudoeste 0 996.1 0.3 97
2017-11-29 10:00:00 14.2 6 Sudoeste 13 Sudoeste 0.2 996.4 0.5 99
2017-11-29 09:00:00 13.9 9 Sudoeste 15 Oeste 0.9 996.2 0.3 99
2017-11-29 08:00:00 13.6 6 Sudoeste 11 Sudoeste 1.2 995.8 -0.2 98
2017-11-29 07:00:00 13.4 5 Sur 8 Sur 0.3 995.9 -1.5 98
2017-11-29 06:00:00 13.1 3 Noroeste 11 Norte 0.8 995.9 -1.7 98
2017-11-29 05:00:00 13.1 3 Este 8 Nordeste 1.8 996 -2.5 98
2017-11-29 04:00:00 13 3 Sudeste 9 Este 3.3 997.4 -3.1 98
2017-11-29 03:00:00 12.9 5 Nordeste 8 Nordeste 0 997.6 -2.4 98
2017-11-29 02:00:00 12.7 0 Calma 17 Este 2.8 998.5 -2.6 98
2017-11-29 01:00:00 12.7 11 Norte 22 Norte 5.7 1000.5 -1.5 97
2017-11-29 00:00:00 13.1 11 Este 15 Este 2.3 1000 -2.5 95
2017-11-28 23:00:00 13.3 6 Este 11 Este 0.5 1001.1 -2.1 93
2017-11-28 22:00:00 13.5 6 Este 11 Este 0 1002 -1.7 90
2017-11-28 21:00:00 13.5 4 Este 11 Este 0 1002.5 -1.4 90
2017-11-28 20:00:00 13.6 6 Este 13 Este 0 1003.2 -1 90
2017-11-28 19:00:00 13.8 12 Este 15 Nordeste 0.2 1003.7 -1.2 86
2017-11-28 18:00:00 15.4 11 Este 21 Nordeste 0 1003.9 -1.7 71
2017-11-28 17:00:00 15.9 15 Nordeste 21 Nordeste 0 1004.2 -2.6 68
2017-11-28 16:00:00 16.6 15 Este 22 Este 0 1004.9 -3.2 66
2017-11-28 15:00:00 16.3 13 Este 18 Este 0 1005.6 -3.6 66
2017-11-28 14:00:00 16.5 8 Este 17 Este 0 1006.8 -3.3 64
2017-11-28 13:00:00 15.5 11 Este 21 Este 0 1008.1 -1.9 66
2017-11-28 12:00:00 15 13 Este 22 Este 0 1009.2 -1.3 70
2017-11-28 11:00:00 13.8 12 Este 21 Este 0 1010.1 -0.5 74
2017-11-28 10:00:00 12 14 Este 21 Este 0 1010 -0.4 82
2017-11-28 09:00:00 11.3 5 Nordeste 13 Este 0 1010.5 0.1 84
2017-11-28 08:00:00 11.3 6 Nordeste 15 Nordeste 0 1010.6 -0.4 81
2017-11-28 07:00:00 10.9 4 Este 15 Este 0 1010.4 -1.2 83
2017-11-28 06:00:00 10.1 5 Este 11 Este 0 1010.4 -1.9 89
2017-11-28 05:00:00 10.9 5 Este 8 Este 0 1011 -1.8 88
2017-11-28 04:00:00 11.1 5 Este 9 Este 0 1011.6 -1.9 85
2017-11-28 03:00:00 10.1 0 Calma 4 Nordeste 0 1012.3 -1.3 86
2017-11-28 02:00:00 9.5 0 Calma 4 Nordeste 0 1012.8 -1 85
2017-11-28 01:00:00 10 0 Calma 5 Este 0 1013.5 -0.2 85
2017-11-28 00:00:00 10 0 Calma -- -- 0 1013.6 -0.2 81
2017-11-27 23:00:00 11.2 0 Calma -- -- 0 1013.8 0 81
2017-11-27 22:00:00 12.6 0 Calma -- -- 0 1013.7 -0.1 77
2017-11-27 21:00:00 12.8 0 Calma 5 Este 0 1013.8 0.4 77
2017-11-27 20:00:00 13.4 0 Calma -- -- 0 1013.8 0.1 70
2017-11-27 19:00:00 15.1 0 Calma -- -- 0 1013.8 0 63
2017-11-27 18:00:00 16.8 0 Calma -- -- 0 1013.4 -0.9 61
2017-11-27 17:00:00 18.4 0 Calma 5 Nordeste 0 1013.7 -1.6 51
2017-11-27 16:00:00 18.9 0 Calma 9 Nordeste 0 1013.8 -2.8 48
2017-11-27 15:00:00 18.8 4 Nordeste 15 Nordeste 0 1014.3 -3.7 45
2017-11-27 14:00:00 17.6 10 Este 18 Este 0 1015.3 -2.7 45
2017-11-27 13:00:00 15.7 12 Este 22 Este 0 1016.6 -1.4 47
2017-11-27 12:00:00 14.2 16 Este 26 Este 0 1018 0.4 47
2017-11-27 11:00:00 12.4 14 Este 22 Este 0 1018 0.7 45
2017-11-27 10:00:00 9.6 12 Este 21 Este 0 1018 1.1 55
2017-11-27 09:00:00 8.4 12 Este 17 Este 0 1017.6 0.8 58
2017-11-27 08:00:00 8 11 Este 17 Este 0 1017.3 0.6 59
2017-11-27 07:00:00 7.3 10 Este 15 Este 0 1016.9 0.2 65
2017-11-27 06:00:00 7.1 6 Este 13 Este 0 1016.8 0.2 67
2017-11-27 05:00:00 7.4 3 Este 13 Este 0 1016.7 0.3 65
2017-11-27 04:00:00 7.7 10 Este 18 Este 0 1016.7 0.1 62
2017-11-27 03:00:00 7.4 6 Este 15 Este 0 1016.6 0.1 67
2017-11-27 02:00:00 8.4 7 Este 15 Este 0 1016.4 -0.2 62
2017-11-27 01:00:00 9.2 10 Este 17 Este 0 1016.6 0.2 58
2017-11-27 00:00:00 8.3 7 Este 13 Este 0 1016.5 0.4 69
2017-11-26 23:00:00 9.3 5 Este 11 Este 0 1016.6 0.7 68
2017-11-26 22:00:00 11.1 9 Este 15 Este 0 1016.4 0.9 60
2017-11-26 21:00:00 11.3 4 Este 17 Este 0 1016.1 0.9 64
2017-11-26 20:00:00 12 9 Este 13 Este 0 1015.9 1.2 62
2017-11-26 19:00:00 13.9 6 Nordeste 8 Nordeste 0 1015.5 0.9 55
2017-11-26 18:00:00 17.2 3 Este 17 Este 0 1015.2 0.4 45
2017-11-26 17:00:00 20.1 12 Este 22 Este 0 1014.7 -0.7 37
2017-11-26 16:00:00 21.4 14 Este 26 Nordeste 0 1014.6 -1.5 34
2017-11-26 15:00:00 21.4 18 Este 30 Este 0 1014.8 -1.9 35
2017-11-26 14:00:00 20.3 22 Este 32 Nordeste 0 1015.4 -1.4 38
2017-11-26 13:00:00 18.4 22 Nordeste 32 Nordeste 0 1016.1 -0.2 43
2017-11-26 12:00:00 16.7 20 Este 32 Este 0 1016.7 1.1 52
2017-11-26 11:00:00 14.3 16 Este 28 Este 0 1016.8 2.2 66
2017-11-26 10:00:00 11.8 11 Este 21 Este 0 1016.3 2.4 79
2017-11-26 09:00:00 9.9 5 Nordeste 21 Nordeste 0 1015.6 2 85
2017-11-26 08:00:00 9.2 10 Este 15 Este 0 1014.6 1.4 86
2017-11-26 07:00:00 8.7 4 Nordeste 8 Nordeste 0 1013.9 0.5 87
2017-11-26 06:00:00 8.3 0 Calma 4 Nordeste 0 1013.6 0.5 88
2017-11-26 05:00:00 8.5 3 Nordeste 5 Nordeste 0 1013.2 0.4 87
2017-11-26 04:00:00 8.9 0 Calma 8 Sudeste 0 1013.4 0.8 84
2017-11-26 03:00:00 9.1 0 Calma -- -- 0 1013.1 0.4 84
2017-11-26 02:00:00 10.6 0 Calma -- -- 0 1012.8 0.4 77
2017-11-26 01:00:00 12.2 0 Calma -- -- 0 1012.6 0.6 73
2017-11-26 00:00:00 13.1 0 Calma -- -- 0 1012.7 0.8 69
2017-11-25 23:00:00 13.1 0 Calma 5 Norte 0 1012.4 0.9 69
2017-11-25 22:00:00 13.4 6 Norte 11 Este 0 1012 0.9 68
2017-11-25 21:00:00 13.6 0 Calma 4 Este 0 1011.9 1.2 66
2017-11-25 20:00:00 13.9 3 Nordeste 5 Este 0 1011.5 1.3 60
2017-11-25 19:00:00 14.8 3 Este 5 Este 0 1011.1 1.2 55
2017-11-25 18:00:00 16.2 3 Este 8 Este 0 1010.7 1 50
2017-11-25 17:00:00 17.6 0 Calma 5 Este 0 1010.2 -0.1 46
2017-11-25 16:00:00 18.1 2 Este 11 Nordeste 0 1009.9 -0.7 40
2017-11-25 15:00:00 16.2 5 Nordeste 9 Nordeste 0 1009.7 -1.4 45
2017-11-25 14:00:00 15.9 0 Calma 9 Este 0 1010.3 -0.9 46
2017-11-25 13:00:00 14.4 6 Este 13 Nordeste 0 1010.6 -0.4 52
2017-11-25 12:00:00 14.1 5 Nordeste 11 Nordeste 0 1011.1 0.3 51
2017-11-25 11:00:00 12.8 5 Nordeste 15 Este 0 1011.2 1 56
2017-11-25 10:00:00 11.1 3 Este 8 Este 0 1011 0.8 65
2017-11-25 09:00:00 7.2 0 Calma 8 Este 0 1010.8 0.8 77
2017-11-25 08:00:00 7.1 0 Calma 8 Sudeste 0 1010.2 0.2 79
2017-11-25 07:00:00 7.6 3 Este 11 Este 0 1010.2 0.2 79
2017-11-25 06:00:00 6.4 4 Este 8 Este 0 1010 -0.2 83
2017-11-25 05:00:00 5.9 0 Calma 5 Este 0 1010 0.1 81
2017-11-25 04:00:00 6.3 0 Calma 4 Este 0 1010 -0.1 84
2017-11-25 03:00:00 6.6 0 Calma 4 Este 0 1010.2 0.2 84
2017-11-25 02:00:00 7.1 0 Calma -- -- 0 1009.9 -0.1 83
2017-11-25 01:00:00 7.8 0 Calma 4 Norte 0 1010.1 0.2 77
2017-11-25 00:00:00 8.6 0 Calma -- -- 0 1010 0.2 78
2017-11-24 23:00:00 9.3 0 Calma -- -- 0 1010 0.4 69
2017-11-24 22:00:00 10.8 0 Calma -- -- 0 1009.9 0.8 64
2017-11-24 21:00:00 12.4 0 Calma -- -- 0 1009.8 0.9 62
2017-11-24 20:00:00 14.7 0 Calma 2 Sur 0 1009.6 0.7 49
2017-11-24 19:00:00 17.1 0 Calma 4 Sudoeste 0 1009.1 0.5 42
2017-11-24 18:00:00 21.1 4 Sudoeste 15 Oeste 0 1008.9 -0.3 29
2017-11-24 17:00:00 23.5 8 Oeste 15 Oeste 0 1008.9 -0.9 24
2017-11-24 16:00:00 24.1 5 Oeste 11 Oeste 0 1008.6 -1.7 24
2017-11-24 15:00:00 23.1 0 Calma 8 Sudeste 0 1009.2 -2.1 28
2017-11-24 14:00:00 22.1 3 Este 15 Este 0 1009.8 -2 29
2017-11-24 13:00:00 20.3 10 Este 18 Este 0 1010.3 -1.3 34
2017-11-24 12:00:00 17.9 13 Este 21 Nordeste 0 1011.3 0.1 39
2017-11-24 11:00:00 15.3 11 Este 18 Este 0 1011.8 1 48
2017-11-24 10:00:00 12.2 0 Calma -- -- 0 1011.6 1.1 61
2017-11-24 09:00:00 7.7 0 Calma -- -- 0 1011.2 1.1 77
2017-11-24 08:00:00 7 0 Calma -- -- 0 1010.8 0.7 79
2017-11-24 07:00:00 6.7 0 Calma -- -- 0 1010.5 0.3 80
2017-11-24 06:00:00 7.5 0 Calma -- -- 0 1010.1 -0.1 77
2017-11-24 05:00:00 8 0 Calma 5 Este 0 1010.1 -0.2 73
2017-11-24 04:00:00 8.3 3 Este 11 Este 0 1010.2 -0.3 73
2017-11-24 03:00:00 8.9 0 Calma -- -- 0 1010.2 -0.1 70
2017-11-24 02:00:00 9.5 0 Calma -- -- 0 1010.3 0.1 64
2017-11-24 01:00:00 11.3 0 Calma 8 Este 0 1010.5 0.3 57
2017-11-24 00:00:00 12 5 Este 15 Este 0 1010.3 0.3 56
2017-11-23 23:00:00 11.9 0 Calma 8 Este 0 1010.2 0.6 57
2017-11-23 22:00:00 11.6 0 Calma 8 Este 0 1010.2 1 59
2017-11-23 21:00:00 11.3 3 Este 9 Nordeste 0 1010 1.4 66
2017-11-23 20:00:00 12.8 0 Calma -- -- 0 1009.6 1.1 58
2017-11-23 19:00:00 15 0 Calma -- -- 0 1009.2 0.7 46
2017-11-23 18:00:00 18.9 0 Calma -- -- 0 1008.6 -0.1 35
2017-11-23 17:00:00 21.1 0 Calma 8 Este 0 1008.5 -0.7 30
2017-11-23 16:00:00 21.2 3 Este 8 Este 0 1008.5 -1.4 28
2017-11-23 15:00:00 20.4 4 Este 17 Este 0 1008.7 -1.7 28
2017-11-23 14:00:00 19.6 9 Este -- -- -- 1009.2 -1.3 30
2017-11-23 13:00:00 18 12 Este 21 Nordeste 0 1009.9 -0.2 34
2017-11-23 12:00:00 15.3 14 Este 21 Este 0 1010.4 1 42
2017-11-23 11:00:00 12.2 14 Este 21 Este 0 1010.5 1.7 52
2017-11-23 10:00:00 9.9 12 Este 17 Este 0 1010.1 2.1 61
2017-11-23 09:00:00 8.3 5 Este 8 Nordeste 0 1009.4 1.9 69
2017-11-23 08:00:00 6.7 0 Calma 11 Este 0 1008.8 1.8 73
2017-11-23 07:00:00 6.7 0 Calma 8 Este 0 1008 0.9 73
2017-11-23 06:00:00 5 2 Este 8 Este 0 1007.5 0.8 79
2017-11-23 05:00:00 5 0 Calma 11 Este 0 1007 0.4 76
2017-11-23 04:00:00 5.7 2 Este 11 Este 0 1007.1 0.3 74
2017-11-23 03:00:00 5.2 5 Este 8 Este 0 1006.7 -0.1 78
2017-11-23 02:00:00 5.4 0 Calma 8 Este 0 1006.6 0.1 78
2017-11-23 01:00:00 5.2 0 Calma 2 Este 0 1006.8 0.8 85
2017-11-23 00:00:00 5.9 0 Calma -- -- 0 1006.8 1.2 76
2017-11-22 23:00:00 6.7 0 Calma -- -- 0 1006.5 1.3 75
2017-11-22 22:00:00 7.5 0 Calma -- -- 0 1006 1.4 72
2017-11-22 21:00:00 9.2 0 Calma -- -- 0 1005.6 1.3 65
2017-11-22 20:00:00 11.1 0 Calma -- -- 0 1005.2 1 57
2017-11-22 19:00:00 13.9 0 Calma -- -- 0 1004.6 0.3 51
2017-11-22 18:00:00 18.6 0 Calma 4 Sudoeste 0 1004.3 -0.3 38
2017-11-22 17:00:00 21.6 0 Calma 9 Nordeste 0 1004.2 -1.2 25
2017-11-22 16:00:00 20.4 4 Nordeste 15 Nordeste 0 1004.3 -2 29
2017-11-22 15:00:00 20.2 6 Nordeste 15 Nordeste 0 1004.6 -3 29
2017-11-22 14:00:00 19 10 Este 18 Este 0 1005.4 -2.7 30
2017-11-22 13:00:00 17.2 12 Este 21 Nordeste 0 1006.3 -1.6 34
2017-11-22 12:00:00 14.7 14 Este 21 Este 0 1007.6 0 42
2017-11-22 11:00:00 12 10 Este 17 Este 0 1008.1 1.2 52
2017-11-22 10:00:00 8.5 6 Este 13 Este 0 1007.9 0.8 64
2017-11-22 09:00:00 4.3 0 Calma 17 Este 0 1007.6 0.3 79
2017-11-22 08:00:00 3 5 Este 11 Este 0 1006.9 -0.5 80
2017-11-22 07:00:00 2.9 0 Calma 4 Este 0 1007.1 -0.6 84
2017-11-22 06:00:00 3.1 0 Calma 2 Este 0 1007.3 -0.7 84
2017-11-22 05:00:00 2.6 0 Calma 5 Este 0 1007.4 -0.8 81
2017-11-22 04:00:00 3.6 2 Nordeste 4 Nordeste 0 1007.7 -0.7 80
2017-11-22 03:00:00 3.8 0 Calma 4 Este 0 1008 -0.6 78
2017-11-22 02:00:00 4.2 0 Calma 2 Nordeste 0 1008.2 -0.5 79
2017-11-22 01:00:00 4.5 0 Calma -- -- 0 1008.4 -0.3 77
2017-11-22 00:00:00 5.5 0 Calma -- -- 0 1008.6 0 81
2017-11-21 23:00:00 6.9 0 Calma 2 Sudoeste 0 1008.7 0.3 70
2017-11-21 22:00:00 7.8 0 Calma 4 Oeste 0 1008.7 0.3 65
2017-11-21 21:00:00 9.3 0 Calma -- -- 0 1008.6 0.5 62
2017-11-21 20:00:00 11.5 0 Calma 4 Este 0 1008.4 0.2 56
2017-11-21 19:00:00 14.5 0 Calma 4 Nordeste 0 1008.4 -0.2 43
2017-11-21 18:00:00 20.4 0 Calma 2 Este 0 1008.1 -0.9 28
2017-11-21 17:00:00 23.1 0 Calma 9 Este 0 1008.2 -1.7 25
2017-11-21 16:00:00 22.7 5 Este 17 Este 0 1008.6 -2.4 23
2017-11-21 15:00:00 22 7 Este 15 Este 0 1009 -3.1 25
2017-11-21 14:00:00 20.5 11 Este 22 Este 0 1009.9 -2.8 28
2017-11-21 13:00:00 18.5 17 Este 24 Este 0 1011 -1.7 32
2017-11-21 12:00:00 16.2 17 Este 26 Este 0 1012.1 -0.4 37
2017-11-21 11:00:00 13.1 16 Este 24 Este 0 1012.7 0.5 50
2017-11-21 10:00:00 9.8 14 Este 18 Este 0 1012.7 0.8 62
2017-11-21 09:00:00 6.5 12 Este 18 Este 0 1012.5 0.8 75
2017-11-21 08:00:00 4.2 7 Este 13 Este 0 1012.2 0.3 81
2017-11-21 07:00:00 5.1 4 Este 18 Este 0 1011.9 -0.1 79
2017-11-21 06:00:00 4.4 5 Este 9 Este 0 1011.7 -0.5 81
2017-11-21 05:00:00 5 3 Nordeste 9 Este 0 1011.9 0 79
2017-11-21 04:00:00 4.5 5 Este 5 Este 0 1012 0 79
2017-11-21 03:00:00 5.2 4 Este 5 Este 0 1012.2 0.2 79
2017-11-21 02:00:00 5.8 0 Calma 5 Este 0 1011.9 0 79
2017-11-21 01:00:00 6.2 0 Calma -- -- 0 1012 0.4 80
2017-11-21 00:00:00 6.6 0 Calma 4 Nordeste 0 1012 0.7 77
2017-11-20 23:00:00 7 0 Calma 5 Noroeste 0 1011.9 0.9 76
2017-11-20 22:00:00 7.8 0 Calma 13 Sudoeste 0 1011.6 1.3 66
2017-11-20 21:00:00 9.9 0 Calma -- -- 0 1011.3 1.3 67
2017-11-20 20:00:00 11.8 0 Calma -- -- 0 1011 0.8 58
2017-11-20 19:00:00 14.9 0 Calma 8 Norte 0 1010.3 -0.1 46
2017-11-20 18:00:00 21 0 Calma 4 Nordeste 0 1010 -0.7 32
2017-11-20 17:00:00 23.1 2 Nordeste 8 Este 0 1010.2 -1.5 26
2017-11-20 16:00:00 23.3 4 Este 15 Este 0 1010.4 -2.2 25
2017-11-20 15:00:00 22.2 10 Este 18 Este 0 1010.7 -2.7 27
2017-11-20 14:00:00 20.6 15 Este 24 Este 0 1011.7 -1.9 32
2017-11-20 13:00:00 18.7 18 Este 28 Este 0 1012.6 -0.6 34
2017-11-20 12:00:00 16.2 16 Este 28 Este 0 1013.4 0.4 41
2017-11-20 11:00:00 13.4 16 Este 24 Este 0 1013.6 1 51
2017-11-20 10:00:00 9.7 13 Este 18 Este 0 1013.2 1.2 65
2017-11-20 09:00:00 5.4 4 Este 13 Nordeste 0 1013 1 81
2017-11-20 08:00:00 4.1 4 Nordeste 5 Norte 0 1012.6 1 87
2017-11-20 07:00:00 3.3 0 Calma 4 Este 0 1012 0.4 87
2017-11-20 06:00:00 3.5 0 Calma -- -- 0 1012 0.5 90
2017-11-20 05:00:00 4.1 0 Calma -- -- 0 1011.6 0 87
2017-11-20 04:00:00 4.3 0 Calma -- -- 0 1011.6 -0.1 86
2017-11-20 03:00:00 4.9 0 Calma -- -- 0 1011.5 -0.3 83
2017-11-20 02:00:00 5.7 0 Calma 2 Este 0 1011.6 0.2 83
2017-11-20 01:00:00 6.3 3 Este 5 Este 0 1011.7 0.7 84
2017-11-20 00:00:00 7 0 Calma 4 Nordeste 0 1011.8 1.5 79
2017-11-19 23:00:00 7.4 0 Calma 4 Noroeste 0 1011.4 1.5 80
2017-11-19 22:00:00 8.3 3 Norte 8 Oeste 0 1011 1.7 70
2017-11-19 21:00:00 10.2 0 Calma -- -- 0 1010.3 1.5 64
2017-11-19 20:00:00 11.9 0 Calma -- -- 0 1009.9 1.3 62
2017-11-19 19:00:00 14.5 0 Calma 4 Este 0 1009.3 0.8 55
2017-11-19 18:00:00 20.8 0 Calma -- -- 0 1008.8 0 35
2017-11-19 17:00:00 22.7 0 Calma 8 Este 0 1008.6 -1 31
2017-11-19 16:00:00 22.6 5 Este 17 Este 0 1008.5 -1.9 28
2017-11-19 15:00:00 21.6 8 Este 21 Este 0 1008.8 -2.4 29
2017-11-19 14:00:00 20.1 13 Este 22 Este 0 1009.6 -1.8 33
2017-11-19 13:00:00 18 15 Este 22 Este 0 1010.4 -1 37
2017-11-19 12:00:00 15.4 15 Este 22 Nordeste 0 1011.2 0.2 45
2017-11-19 11:00:00 12.4 12 Este 17 Este 0 1011.4 0.9 59
2017-11-19 10:00:00 9 7 Este 13 Este 0 1011.4 1.5 71
2017-11-19 09:00:00 5.7 4 Este 8 Este 0 1011 1.5 84
2017-11-19 08:00:00 3.5 0 Calma -- -- 0 1010.5 1.3 89
2017-11-19 07:00:00 3.1 0 Calma -- -- 0 1009.9 0.6 88
2017-11-19 06:00:00 3.4 0 Calma -- -- 0 1009.5 0.4 88
2017-11-19 05:00:00 3.8 0 Calma -- -- 0 1009.2 0.4 87
2017-11-19 04:00:00 4.5 0 Calma -- -- 0 1009.3 0.4 85
2017-11-19 03:00:00 5.3 0 Calma 5 Este 0 1009.1 0.2 82
2017-11-19 02:00:00 6 5 Este 8 Este 0 1008.8 0 82
2017-11-19 01:00:00 6.5 0 Calma -- -- 0 1008.9 0.4 79
2017-11-19 00:00:00 7 0 Calma -- -- 0 1008.9 0.8 78
2017-11-18 23:00:00 7.9 0 Calma 2 Este 0 1008.8 1 77
2017-11-18 22:00:00 8.7 0 Calma -- -- 0 1008.5 1.1 75
2017-11-18 21:00:00 10.3 0 Calma -- -- 0 1008.1 1.1 68
2017-11-18 20:00:00 12.1 0 Calma -- -- 0 1007.8 1 62
2017-11-18 19:00:00 14.7 0 Calma 2 Nordeste 0 1007.4 0.7 52
2017-11-18 18:00:00 19.7 0 Calma 2 Norte 0 1007 -0.1 35
2017-11-18 17:00:00 22.7 0 Calma 4 Este 0 1006.8 -1.3 28
2017-11-18 16:00:00 22.4 0 Calma 5 Este 0 1006.7 -2.1 28
2017-11-18 15:00:00 21 0 Calma 13 Este 0 1007.1 -2.6 28
2017-11-18 14:00:00 19.3 9 Este 21 Este 0 1008.1 -2 35
2017-11-18 13:00:00 17.3 13 Este 18 Este 0 1008.8 -1.3 42
2017-11-18 12:00:00 15.3 14 Este 21 Este 0 1009.7 -0.2 48
2017-11-18 11:00:00 12.3 9 Este 18 Este 0 1010.1 0.6 58
2017-11-18 10:00:00 8.6 10 Este 17 Este 0 1010.1 0.9 71
2017-11-18 09:00:00 5 4 Este 8 Este 0 1009.9 1.1 84
2017-11-18 08:00:00 2.8 0 Calma 5 Este 0 1009.5 0.7 87
2017-11-18 07:00:00 2.6 0 Calma -- -- 0 1009.2 0.2 87
2017-11-18 06:00:00 3.3 0 Calma 5 Este 0 1008.8 -0.1 86
2017-11-18 05:00:00 3.4 0 Calma -- -- 0 1008.8 0 85
2017-11-18 04:00:00 4.5 0 Calma 4 Nordeste 0 1009 -0.2 84
2017-11-18 03:00:00 4.6 0 Calma 4 Este 0 1008.9 -0.2 84
2017-11-18 02:00:00 5.4 0 Calma 4 Este 0 1008.8 0 84
2017-11-18 01:00:00 6 0 Calma 4 Este 0 1009.2 0.7 81
2017-11-18 00:00:00 6.5 0 Calma -- -- 0 1009.1 1 80
2017-11-17 23:00:00 7.3 0 Calma -- -- 0 1008.8 0.8 72
2017-11-17 22:00:00 8.6 0 Calma -- -- 0 1008.5 1 73
2017-11-17 21:00:00 9.7 0 Calma -- -- 0 1008.1 1.1 73
2017-11-17 20:00:00 12 0 Calma -- -- 0 1008 1.1 62
2017-11-17 19:00:00 14.4 0 Calma -- -- 0 1007.5 0.3 52
2017-11-17 18:00:00 19.8 0 Calma -- -- 0 1007 -0.9 33
2017-11-17 17:00:00 22.5 0 Calma -- -- 0 1006.9 -1.9 25
2017-11-17 16:00:00 22 0 Calma 11 Este 0 1007.2 -2.5 26
2017-11-17 15:00:00 20.4 4 Nordeste 13 Nordeste 0 1007.9 -2.7 28
2017-11-17 14:00:00 18.9 6 Nordeste 15 Nordeste 0 1008.8 -2.3 31
2017-11-17 13:00:00 17.4 10 Este 18 Nordeste 0 1009.7 -1.4 37
2017-11-17 12:00:00 14.7 12 Este 18 Este 0 1010.6 -0.1 46
2017-11-17 11:00:00 11.9 10 Este 18 Nordeste 0 1011.1 0.7 55
2017-11-17 10:00:00 8.7 8 Este 15 Este 0 1011.1 1.1 68
2017-11-17 09:00:00 5 0 Calma -- -- 0 1010.7 0.9 81
2017-11-17 08:00:00 2.4 0 Calma -- -- 0 1010.4 0.7 85
2017-11-17 07:00:00 2.8 0 Calma 4 Este 0 1010 0.1 87
2017-11-17 06:00:00 3 0 Calma -- -- 0 1009.8 0.1 88
2017-11-17 05:00:00 3.5 0 Calma -- -- 0 1009.7 -0.1 88
2017-11-17 04:00:00 4.2 0 Calma 2 Este 0 1009.9 0.1 87
2017-11-17 03:00:00 4.6 0 Calma -- -- 0 1009.7 0 86
2017-11-17 02:00:00 5.6 0 Calma 4 Este 0 1009.8 0.4 85
2017-11-17 01:00:00 6.3 0 Calma -- -- 0 1009.8 0.7 85
2017-11-17 00:00:00 6.6 0 Calma -- -- 0 1009.7 1 83
2017-11-16 23:00:00 7.5 0 Calma -- -- 0 1009.4 0.9 80
2017-11-16 22:00:00 8.6 0 Calma -- -- 0 1009.1 1.1 76
2017-11-16 21:00:00 10 0 Calma -- -- 0 1008.7 1.2 75
2017-11-16 20:00:00 12 0 Calma -- -- 0 1008.5 1.1 65
2017-11-16 19:00:00 14.7 0 Calma -- -- 0 1008 0.4 56
2017-11-16 18:00:00 19.2 0 Calma -- -- 0 1007.5 -0.4 38
2017-11-16 17:00:00 21.8 0 Calma 8 Oeste 0 1007.4 -1.3 29
2017-11-16 16:00:00 22.3 0 Calma 8 Este 0 1007.6 -2.1 27
2017-11-16 15:00:00 19.8 0 Calma 13 Este 0 1007.9 -2.8 31
2017-11-16 14:00:00 18.2 5 Nordeste 18 Nordeste 0 1008.7 -2.2 36
2017-11-16 13:00:00 16.4 12 Este 18 Este 0 1009.7 -1 41
2017-11-16 12:00:00 14.2 9 Este 21 Este 0 1010.7 0.4 47
2017-11-16 11:00:00 11.8 12 Este 18 Este 0 1010.9 1.2 59
2017-11-16 10:00:00 8.8 10 Este 15 Este 0 1010.7 1.5 71
2017-11-16 09:00:00 4.9 0 Calma 8 Este 0 1010.3 1.2 83
2017-11-16 08:00:00 3.2 0 Calma -- -- 0 1009.7 0.9 90
2017-11-16 07:00:00 2.9 0 Calma -- -- 0 1009.2 0.3 88
2017-11-16 06:00:00 3.3 0 Calma -- -- 0 1009.1 0.4 88
2017-11-16 05:00:00 3.8 0 Calma 4 Este 0 1008.8 0.2 89
2017-11-16 04:00:00 4.1 2 Este 8 Este 0 1008.9 0.4 88
2017-11-16 03:00:00 4.6 0 Calma -- -- 0 1008.7 0.1 86
2017-11-16 02:00:00 5.5 0 Calma -- -- 0 1008.6 0.1 85
2017-11-16 01:00:00 6.2 0 Calma -- -- 0 1008.5 0.1 80
2017-11-16 00:00:00 6.5 0 Calma -- -- 0 1008.6 0.4 82
2017-11-15 23:00:00 7.8 0 Calma -- -- 0 1008.5 0.6 76
2017-11-15 22:00:00 8.5 0 Calma -- -- 0 1008.4 0.9 79
2017-11-15 21:00:00 9.8 0 Calma -- -- 0 1008.2 0.8 72
2017-11-15 20:00:00 11.3 0 Calma 4 Nordeste 0 1007.9 0.3 66
2017-11-15 19:00:00 13.9 0 Calma 4 Nordeste 0 1007.5 -0.1 56
2017-11-15 18:00:00 19.3 0 Calma -- -- 0 1007.4 -0.6 36
2017-11-15 17:00:00 20.9 0 Calma 5 Sur 0 1007.6 -1.1 30
2017-11-15 16:00:00 20.9 0 Calma 5 Sudoeste 0 1007.6 -2.1 30
2017-11-15 15:00:00 19.9 0 Calma 8 Este 0 1008 -2.8 34
2017-11-15 14:00:00 17.9 5 Este 18 Este 0 1008.7 -2.5 38
2017-11-15 13:00:00 15.9 14 Este 22 Este 0 1009.7 -1.6 38
2017-11-15 12:00:00 13.9 17 Este 24 Este 0 1010.8 -0.3 40
2017-11-15 11:00:00 11.2 15 Este 22 Este 0 1011.2 0.6 47
2017-11-15 10:00:00 8.2 12 Este 18 Este 0 1011.3 1.2 59
2017-11-15 09:00:00 5.4 6 Este 17 Nordeste 0 1011.1 1.4 73
2017-11-15 08:00:00 3.6 4 Este 11 Nordeste 0 1010.6 1.1 77
2017-11-15 07:00:00 3.6 3 Este 11 Este 0 1010.1 0.6 78
2017-11-15 06:00:00 3.9 3 Este 13 Nordeste 0 1009.7 0.3 78
2017-11-15 05:00:00 4 5 Nordeste 11 Este 0 1009.5 0.5 77
2017-11-15 04:00:00 4.6 5 Este 11 Este 0 1009.5 0.3 75
2017-11-15 03:00:00 5 3 Este 13 Este 0 1009.4 0.6 73
2017-11-15 02:00:00 4.6 0 Calma 13 Norte 0 1009 0.6 77
2017-11-15 01:00:00 4.9 9 Norte 13 Norte 0 1009.2 1.2 76
2017-11-15 00:00:00 6.1 3 Este 8 Nordeste 0 1008.8 1.1 67